Time;durP1;ratioP1;P1;durP2;ratioP2;P2;SDS_P1;SDS_P2;PMS_P1;PMS_P2;Temp;Humidity;BMP_temperature;BMP_pressure;BME280_temperature;BME280_humidity;BME280_pressure;Samples;Min_cycle;Max_cycle;Signal;HPM_P1;HPM_P2
2021/07/30 00:01:48;;;;;;;5.80;4.00;;;;;;;;;;4991184;28;20404;-69
2021/07/30 00:04:14;;;;;;;7.15;3.97;;;;;;;;;;4989949;28;20393;-70
2021/07/30 00:06:40;;;;;;;10.40;4.40;;;;;;;;;;4992955;28;20491;-67
2021/07/30 00:09:06;;;;;;;6.35;3.85;;;;;;;;;;4994040;28;20396;-69
2021/07/30 00:11:32;;;;;;;9.38;3.97;;;;;;;;;;4992871;28;20046;-69
2021/07/30 00:13:58;;;;;;;7.18;3.50;;;;;;;;;;4993938;28;20113;-69
2021/07/30 00:16:24;;;;;;;6.20;3.90;;;;;;;;;;4993616;28;20026;-69
2021/07/30 00:18:50;;;;;;;7.70;3.58;;;;;;;;;;4991271;28;20026;-68
2021/07/30 00:21:16;;;;;;;7.97;3.80;;;;;;;;;;4994342;28;20033;-68
2021/07/30 00:23:42;;;;;;;5.88;4.07;;;;;;;;;;4994641;28;20022;-69
2021/07/30 00:26:08;;;;;;;5.93;3.40;;;;;;;;;;4992833;28;20030;-68
2021/07/30 00:28:34;;;;;;;5.97;3.33;;;;;;;;;;4992714;28;20094;-68
2021/07/30 00:31:01;;;;;;;6.60;3.83;;;;;;;;;;4992382;28;20468;-69
2021/07/30 00:33:27;;;;;;;10.77;4.25;;;;;;;;;;4984882;28;20103;-68
2021/07/30 00:35:55;;;;;;;6.82;4.30;;;;;;;;;;4997703;28;20041;-68
2021/07/30 00:38:21;;;;;;;8.48;4.40;;;;;;;;;;4994929;28;20109;-68
2021/07/30 00:40:47;;;;;;;7.15;4.10;;;;;;;;;;4993939;28;20062;-68
2021/07/30 00:43:13;;;;;;;5.80;3.95;;;;;;;;;;4994116;28;20023;-69
2021/07/30 00:45:40;;;;;;;12.45;4.15;;;;;;;;;;4980639;28;20058;-67
2021/07/30 00:48:07;;;;;;;5.40;3.53;;;;;;;;;;4995188;28;20018;-69
2021/07/30 00:50:34;;;;;;;4.53;3.40;;;;;;;;;;4982804;28;20403;-67
2021/07/30 00:53:00;;;;;;;6.93;3.60;;;;;;;;;;4988219;28;20021;-68
2021/07/30 00:55:27;;;;;;;8.68;3.85;;;;;;;;;;4993941;28;20023;-68
2021/07/30 00:57:53;;;;;;;5.68;3.45;;;;;;;;;;4994690;28;20503;-69
2021/07/30 01:00:22;;;;;;;6.32;3.67;;;;;;;;;;4994141;28;20337;-67
2021/07/30 01:02:48;;;;;;;6.25;3.50;;;;;;;;;;4994468;28;20653;-67
2021/07/30 01:05:15;;;;;;;7.38;3.47;;;;;;;;;;4993797;28;20084;-69
2021/07/30 01:07:41;;;;;;;5.75;3.67;;;;;;;;;;4994848;28;20022;-70
2021/07/30 01:10:07;;;;;;;7.85;3.83;;;;;;;;;;4994550;28;20030;-70
2021/07/30 01:12:34;;;;;;;10.80;3.85;;;;;;;;;;4994346;28;20022;-70
2021/07/30 01:15:00;;;;;;;11.20;4.10;;;;;;;;;;4995233;28;20026;-67
2021/07/30 01:17:26;;;;;;;8.30;3.60;;;;;;;;;;4993913;28;20464;-69
2021/07/30 01:19:52;;;;;;;6.57;3.70;;;;;;;;;;4996073;28;20069;-70
2021/07/30 01:22:23;;;;;;;7.10;4.45;;;;;;;;;;4993999;28;20041;-69
2021/07/30 01:24:50;;;;;;;6.13;3.50;;;;;;;;;;4994713;28;20104;-70
2021/07/30 01:27:17;;;;;;;6.57;3.78;;;;;;;;;;4976392;28;20072;-68
2021/07/30 01:29:43;;;;;;;6.32;3.65;;;;;;;;;;4993689;28;20034;-68
2021/07/30 01:32:09;;;;;;;4.93;3.50;;;;;;;;;;4993753;28;20030;-70
2021/07/30 01:34:35;;;;;;;10.32;3.55;;;;;;;;;;4997476;28;20014;-69
2021/07/30 01:37:01;;;;;;;6.93;3.53;;;;;;;;;;4992831;28;20034;-68
2021/07/30 01:39:27;;;;;;;6.47;3.50;;;;;;;;;;4992940;28;20022;-70
2021/07/30 01:41:53;;;;;;;5.80;3.20;;;;;;;;;;4993613;28;20038;-67
2021/07/30 01:44:19;;;;;;;5.75;3.75;;;;;;;;;;4993318;28;20044;-67
2021/07/30 01:46:47;;;;;;;5.57;3.50;;;;;;;;;;4996170;28;20058;-70
2021/07/30 01:49:13;;;;;;;6.00;3.70;;;;;;;;;;4992282;28;20018;-68
2021/07/30 01:51:39;;;;;;;6.15;3.63;;;;;;;;;;4993465;28;20084;-67
2021/07/30 01:54:06;;;;;;;8.43;3.90;;;;;;;;;;4993594;28;20070;-69
2021/07/30 01:56:33;;;;;;;5.10;3.75;;;;;;;;;;4993475;28;20022;-68
2021/07/30 01:58:59;;;;;;;7.28;3.40;;;;;;;;;;4995269;28;20037;-68
2021/07/30 02:01:25;;;;;;;6.43;3.40;;;;;;;;;;4993161;28;20030;-68
2021/07/30 02:03:51;;;;;;;5.60;3.50;;;;;;;;;;4993270;28;20030;-69
2021/07/30 02:06:30;;;;;;;6.15;3.42;;;;;;;;;;4998430;28;20049;-69
2021/07/30 02:08:59;;;;;;;8.02;4.10;;;;;;;;;;4978817;28;20421;-68
2021/07/30 02:11:25;;;;;;;6.18;3.70;;;;;;;;;;4975874;28;20073;-67
2021/07/30 02:16:37;;;;;;;5.63;3.70;;;;;;;;;;4993134;28;20042;-68
2021/07/30 02:19:03;;;;;;;6.85;4.10;;;;;;;;;;4992149;28;20023;-68
2021/07/30 02:21:29;;;;;;;6.80;4.10;;;;;;;;;;4993031;28;20034;-68
2021/07/30 02:23:55;;;;;;;7.75;4.10;;;;;;;;;;4992830;28;20023;-68
2021/07/30 02:26:21;;;;;;;5.93;3.92;;;;;;;;;;4993125;28;20030;-69
2021/07/30 02:28:47;;;;;;;5.22;3.70;;;;;;;;;;4992184;28;20026;-68
2021/07/30 02:31:13;;;;;;;6.00;3.83;;;;;;;;;;4991936;28;20144;-69
2021/07/30 02:33:39;;;;;;;5.15;3.70;;;;;;;;;;4992665;28;20030;-68
2021/07/30 02:36:05;;;;;;;7.82;4.00;;;;;;;;;;4992783;28;20109;-68
2021/07/30 02:38:31;;;;;;;9.02;3.92;;;;;;;;;;4995749;28;20364;-68
2021/07/30 02:40:57;;;;;;;6.78;3.78;;;;;;;;;;4991565;28;20181;-67
2021/07/30 02:43:23;;;;;;;6.90;3.80;;;;;;;;;;4982182;28;20124;-68
2021/07/30 02:45:49;;;;;;;6.05;3.65;;;;;;;;;;4989564;28;20051;-67
2021/07/30 02:48:15;;;;;;;6.55;4.18;;;;;;;;;;4994387;28;20500;-69
2021/07/30 02:50:41;;;;;;;7.40;3.85;;;;;;;;;;4991836;28;20034;-68
2021/07/30 02:53:07;;;;;;;7.07;3.63;;;;;;;;;;4990836;28;20025;-69
2021/07/30 02:55:33;;;;;;;6.45;3.88;;;;;;;;;;4992620;28;20030;-68
2021/07/30 02:57:59;;;;;;;8.48;3.58;;;;;;;;;;4992253;28;20041;-68
2021/07/30 03:00:27;;;;;;;5.43;3.70;;;;;;;;;;5002666;28;20101;-69
2021/07/30 03:02:53;;;;;;;8.43;3.88;;;;;;;;;;4974301;28;20062;-68
2021/07/30 03:05:21;;;;;;;8.70;4.15;;;;;;;;;;4991962;28;20066;-68
2021/07/30 03:07:47;;;;;;;8.98;4.13;;;;;;;;;;4992606;28;20018;-68
2021/07/30 03:10:13;;;;;;;5.65;3.70;;;;;;;;;;4992766;28;20069;-68
2021/07/30 03:12:39;;;;;;;10.27;4.28;;;;;;;;;;4971092;28;20030;-68
2021/07/30 03:15:06;;;;;;;9.27;3.92;;;;;;;;;;4992008;28;20113;-67
2021/07/30 03:17:32;;;;;;;7.38;3.63;;;;;;;;;;4984382;28;20046;-67
2021/07/30 03:19:58;;;;;;;7.95;4.05;;;;;;;;;;4986724;28;20030;-68
2021/07/30 03:22:24;;;;;;;5.78;3.90;;;;;;;;;;4987470;28;20098;-69
2021/07/30 03:24:50;;;;;;;6.78;3.85;;;;;;;;;;4992081;28;20092;-68
2021/07/30 03:27:16;;;;;;;7.10;4.07;;;;;;;;;;4991793;28;20050;-67
2021/07/30 03:29:43;;;;;;;7.88;3.80;;;;;;;;;;4998540;28;20026;-69
2021/07/30 03:32:10;;;;;;;8.25;3.90;;;;;;;;;;4994502;28;20077;-69
2021/07/30 03:34:37;;;;;;;8.20;3.88;;;;;;;;;;4989489;28;20054;-69
2021/07/30 03:37:04;;;;;;;7.90;4.10;;;;;;;;;;4991957;28;20030;-69
2021/07/30 03:39:30;;;;;;;8.13;4.60;;;;;;;;;;4993764;28;20018;-66
2021/07/30 03:41:56;;;;;;;7.80;4.18;;;;;;;;;;4995511;28;20034;-69
2021/07/30 03:44:22;;;;;;;6.55;4.03;;;;;;;;;;4995364;28;20550;-70
2021/07/30 03:46:48;;;;;;;6.90;4.10;;;;;;;;;;4994841;28;20141;-67
2021/07/30 03:49:14;;;;;;;8.00;4.45;;;;;;;;;;4994741;28;20049;-67
2021/07/30 03:51:40;;;;;;;8.10;3.88;;;;;;;;;;4995592;28;20058;-69
2021/07/30 03:54:06;;;;;;;6.82;4.25;;;;;;;;;;4995483;28;20033;-67
2021/07/30 03:56:32;;;;;;;6.32;4.10;;;;;;;;;;4994844;28;20035;-69
2021/07/30 03:58:58;;;;;;;5.90;4.15;;;;;;;;;;4999345;28;20045;-69
2021/07/30 04:01:24;;;;;;;4.80;3.90;;;;;;;;;;4994253;28;20472;-67
2021/07/30 04:03:50;;;;;;;7.75;4.45;;;;;;;;;;4994970;28;20523;-67
2021/07/30 04:06:17;;;;;;;9.10;4.45;;;;;;;;;;4996475;28;20427;-69
2021/07/30 04:08:43;;;;;;;7.60;4.30;;;;;;;;;;4995489;28;20452;-66
2021/07/30 04:11:09;;;;;;;8.50;4.43;;;;;;;;;;4994664;28;20479;-68
2021/07/30 04:13:35;;;;;;;7.00;4.45;;;;;;;;;;4994816;28;20495;-69
2021/07/30 04:16:05;;;;;;;6.72;4.03;;;;;;;;;;4994257;28;20476;-68
2021/07/30 04:18:31;;;;;;;8.13;4.65;;;;;;;;;;4986668;28;20034;-68
2021/07/30 04:20:57;;;;;;;7.55;4.15;;;;;;;;;;4994663;28;20070;-66
2021/07/30 04:23:24;;;;;;;6.18;4.35;;;;;;;;;;4995040;28;20042;-68
2021/07/30 04:25:50;;;;;;;13.68;4.60;;;;;;;;;;4995284;28;20041;-69
2021/07/30 04:28:17;;;;;;;7.65;4.47;;;;;;;;;;4961976;28;20033;-70
2021/07/30 04:30:43;;;;;;;8.18;4.47;;;;;;;;;;4994530;28;20065;-69
2021/07/30 04:33:09;;;;;;;7.10;4.15;;;;;;;;;;4994680;28;20026;-67
2021/07/30 04:35:39;;;;;;;7.72;4.50;;;;;;;;;;4994497;28;20030;-69
2021/07/30 04:38:16;;;;;;;6.32;4.75;;;;;;;;;;5005469;28;20022;-68
2021/07/30 04:40:42;;;;;;;10.55;4.70;;;;;;;;;;4994479;28;20026;-68
2021/07/30 04:43:11;;;;;;;10.23;4.20;;;;;;;;;;5000098;28;20042;-68
2021/07/30 04:45:37;;;;;;;6.57;4.75;;;;;;;;;;4993895;28;20059;-70
2021/07/30 04:48:03;;;;;;;6.80;4.38;;;;;;;;;;4995022;28;20538;-69
2021/07/30 04:50:30;;;;;;;8.43;4.68;;;;;;;;;;4992616;28;20040;-69
2021/07/30 04:52:56;;;;;;;9.35;4.18;;;;;;;;;;4993452;28;20019;-69
2021/07/30 04:55:22;;;;;;;6.53;4.15;;;;;;;;;;4994269;28;20030;-70
2021/07/30 04:58:10;;;;;;;10.07;4.80;;;;;;;;;;4996878;28;20585;-69
2021/07/30 05:00:37;;;;;;;8.25;4.85;;;;;;;;;;4981783;28;20030;-70
2021/07/30 05:03:03;;;;;;;10.38;4.07;;;;;;;;;;4982451;28;20068;-68
2021/07/30 05:05:30;;;;;;;8.60;4.40;;;;;;;;;;4994352;28;20038;-69
2021/07/30 05:07:56;;;;;;;6.30;4.05;;;;;;;;;;4993702;28;20026;-70
2021/07/30 05:10:22;;;;;;;6.78;4.30;;;;;;;;;;4993647;28;20040;-69
2021/07/30 05:12:48;;;;;;;21.80;5.07;;;;;;;;;;5006320;28;20033;-69
2021/07/30 05:15:14;;;;;;;8.32;4.80;;;;;;;;;;4993622;28;20476;-69
2021/07/30 05:17:40;;;;;;;8.02;4.35;;;;;;;;;;4994489;28;20019;-69
2021/07/30 05:20:08;;;;;;;8.18;4.30;;;;;;;;;;4992698;28;20033;-69
2021/07/30 05:22:34;;;;;;;10.05;4.25;;;;;;;;;;4994229;28;20384;-69
2021/07/30 05:25:00;;;;;;;7.10;4.25;;;;;;;;;;4993473;28;20102;-68
2021/07/30 05:27:26;;;;;;;16.00;4.90;;;;;;;;;;4993873;28;20019;-70
2021/07/30 05:29:52;;;;;;;11.68;4.70;;;;;;;;;;4993470;28;20071;-69
2021/07/30 05:32:18;;;;;;;15.98;5.05;;;;;;;;;;4973960;28;20042;-70
2021/07/30 05:34:46;;;;;;;7.45;4.40;;;;;;;;;;4994954;28;20052;-70
2021/07/30 05:37:13;;;;;;;9.73;4.97;;;;;;;;;;4974224;28;20042;-68
2021/07/30 05:39:41;;;;;;;6.70;4.50;;;;;;;;;;4990788;28;20031;-66
2021/07/30 05:42:07;;;;;;;9.23;4.53;;;;;;;;;;4992727;28;20109;-67
2021/07/30 05:44:33;;;;;;;6.20;4.38;;;;;;;;;;4992575;28;20157;-79
2021/07/30 05:46:59;;;;;;;7.20;4.35;;;;;;;;;;4987343;28;20077;-70
2021/07/30 05:49:25;;;;;;;16.52;4.53;;;;;;;;;;4976325;28;20491;-79
2021/07/30 05:51:51;;;;;;;6.72;4.18;;;;;;;;;;4972861;28;20492;-64
2021/07/30 05:54:17;;;;;;;14.15;4.65;;;;;;;;;;4984976;28;20515;-67
2021/07/30 05:56:44;;;;;;;7.32;4.30;;;;;;;;;;4991767;28;20507;-72
2021/07/30 05:59:10;;;;;;;8.90;4.47;;;;;;;;;;4993543;28;20034;-69
2021/07/30 06:01:36;;;;;;;11.10;4.40;;;;;;;;;;4992646;28;20102;-66
2021/07/30 06:04:02;;;;;;;10.00;4.35;;;;;;;;;;4990300;28;20157;-70
2021/07/30 06:06:28;;;;;;;7.07;4.53;;;;;;;;;;4993156;28;20500;-70
2021/07/30 06:08:54;;;;;;;9.18;4.22;;;;;;;;;;4970595;28;20076;-65
2021/07/30 06:11:20;;;;;;;9.70;4.57;;;;;;;;;;4986656;28;20026;-65
2021/07/30 06:13:46;;;;;;;8.10;4.20;;;;;;;;;;4992332;28;20096;-70
2021/07/30 06:16:12;;;;;;;9.73;4.57;;;;;;;;;;4972717;28;20045;-67
2021/07/30 06:18:38;;;;;;;9.77;4.45;;;;;;;;;;4990110;28;20334;-66
2021/07/30 06:21:05;;;;;;;13.48;4.78;;;;;;;;;;4992912;28;20041;-71
2021/07/30 06:23:32;;;;;;;6.57;4.18;;;;;;;;;;4992803;28;20046;-70
2021/07/30 06:25:58;;;;;;;5.70;4.25;;;;;;;;;;4992406;28;20038;-69
2021/07/30 06:28:26;;;;;;;10.52;4.53;;;;;;;;;;4992477;28;20026;-67
2021/07/30 06:30:52;;;;;;;16.95;4.93;;;;;;;;;;4992394;28;20042;-63
2021/07/30 06:33:21;;;;;;;9.95;4.72;;;;;;;;;;4994640;28;20393;-65
2021/07/30 06:35:48;;;;;;;7.80;4.38;;;;;;;;;;4991854;28;20034;-66
2021/07/30 06:38:15;;;;;;;9.93;4.53;;;;;;;;;;4991202;28;20114;-68
2021/07/30 06:40:44;;;;;;;10.18;4.43;;;;;;;;;;4989696;28;20045;-79
2021/07/30 06:43:13;;;;;;;8.30;4.40;;;;;;;;;;4974219;28;20049;-80
2021/07/30 06:45:40;;;;;;;7.28;4.47;;;;;;;;;;4972402;28;20046;-81
2021/07/30 06:48:07;;;;;;;7.70;4.10;;;;;;;;;;4990993;28;20023;-72
2021/07/30 06:50:35;;;;;;;9.27;4.90;;;;;;;;;;4968556;28;20077;-74
2021/07/30 06:53:01;;;;;;;6.13;4.05;;;;;;;;;;4989193;28;20037;-67
2021/07/30 06:55:27;;;;;;;8.20;4.55;;;;;;;;;;4991716;28;20037;-72
2021/07/30 06:57:53;;;;;;;6.93;4.20;;;;;;;;;;4989118;28;20038;-68
2021/07/30 07:00:19;;;;;;;8.45;4.45;;;;;;;;;;4987914;28;20026;-70
2021/07/30 07:02:45;;;;;;;8.00;4.10;;;;;;;;;;4992067;28;20531;-69
2021/07/30 07:05:12;;;;;;;6.53;4.20;;;;;;;;;;4991358;28;20153;-67
2021/07/30 07:07:38;;;;;;;7.32;4.28;;;;;;;;;;4991945;28;20077;-71
2021/07/30 07:10:04;;;;;;;7.38;4.20;;;;;;;;;;4991025;28;20057;-66
2021/07/30 07:12:30;;;;;;;6.05;4.05;;;;;;;;;;4991734;28;20076;-79
2021/07/30 07:14:57;;;;;;;9.63;4.20;;;;;;;;;;4994001;28;20590;-72
2021/07/30 07:17:23;;;;;;;8.65;4.30;;;;;;;;;;4995778;28;20392;-67
2021/07/30 07:19:49;;;;;;;6.57;4.47;;;;;;;;;;4995625;28;20096;-71
2021/07/30 07:22:15;;;;;;;7.47;4.00;;;;;;;;;;4984655;28;20023;-72
2021/07/30 07:24:41;;;;;;;10.25;4.47;;;;;;;;;;4955414;28;20039;-65
2021/07/30 07:27:08;;;;;;;10.48;4.50;;;;;;;;;;4983079;28;20030;-78
2021/07/30 07:29:34;;;;;;;7.40;4.47;;;;;;;;;;4983953;28;20512;-74
2021/07/30 07:32:00;;;;;;;9.77;4.60;;;;;;;;;;4984602;28;20030;-76
2021/07/30 07:34:27;;;;;;;33.00;5.85;;;;;;;;;;4988113;28;21457;-67
2021/07/30 07:36:53;;;;;;;7.72;4.43;;;;;;;;;;4972724;28;20057;-66
2021/07/30 07:39:20;;;;;;;7.13;4.47;;;;;;;;;;4980348;28;20031;-66
2021/07/30 07:41:46;;;;;;;8.75;4.82;;;;;;;;;;4993033;28;20074;-67
2021/07/30 07:44:16;;;;;;;10.02;4.57;;;;;;;;;;4992941;28;20813;-64
2021/07/30 07:46:43;;;;;;;8.18;4.65;;;;;;;;;;4995076;28;20061;-68
2021/07/30 07:49:09;;;;;;;8.32;4.55;;;;;;;;;;4995759;28;20058;-68
2021/07/30 07:51:36;;;;;;;8.52;4.70;;;;;;;;;;4991461;28;20027;-65
2021/07/30 07:54:03;;;;;;;21.13;5.22;;;;;;;;;;4985225;28;20030;-69
2021/07/30 07:56:29;;;;;;;8.52;4.57;;;;;;;;;;4985237;28;20026;-69
2021/07/30 07:58:55;;;;;;;10.43;4.38;;;;;;;;;;4995878;28;20138;-70
2021/07/30 08:01:21;;;;;;;8.85;4.75;;;;;;;;;;4995418;28;20022;-68
2021/07/30 08:03:47;;;;;;;8.32;4.45;;;;;;;;;;4995241;28;20029;-69
2021/07/30 08:06:20;;;;;;;6.30;4.22;;;;;;;;;;4995453;28;20038;-69
2021/07/30 08:08:46;;;;;;;;;;;;;;;;;;4982308;28;20033;-68
2021/07/30 08:11:12;;;;;;;8.95;4.45;;;;;;;;;;4995400;28;19910;-69
2021/07/30 08:13:39;;;;;;;7.28;4.20;;;;;;;;;;4994930;28;20048;-68
2021/07/30 08:16:05;;;;;;;9.98;4.00;;;;;;;;;;4994938;28;20026;-70
2021/07/30 08:18:31;;;;;;;9.27;3.95;;;;;;;;;;4995227;28;20022;-69
2021/07/30 08:20:59;;;;;;;11.50;4.53;;;;;;;;;;4995495;28;20080;-68
2021/07/30 08:23:25;;;;;;;7.32;4.20;;;;;;;;;;4995122;28;20116;-66
2021/07/30 08:25:51;;;;;;;7.53;4.45;;;;;;;;;;4993738;28;20038;-68
2021/07/30 08:28:18;;;;;;;11.23;4.20;;;;;;;;;;4995592;28;20018;-68
2021/07/30 08:30:47;;;;;;;7.75;4.30;;;;;;;;;;4999196;28;20034;-68
2021/07/30 08:33:13;;;;;;;7.35;4.20;;;;;;;;;;4995321;28;20018;-69
2021/07/30 08:35:40;;;;;;;8.13;4.18;;;;;;;;;;4994122;28;20050;-69
2021/07/30 08:38:06;;;;;;;9.07;4.18;;;;;;;;;;4994711;28;20472;-69
2021/07/30 08:40:33;;;;;;;8.32;4.18;;;;;;;;;;4994584;28;20045;-69
2021/07/30 08:43:00;;;;;;;6.22;4.20;;;;;;;;;;4995201;28;20022;-65
2021/07/30 08:45:26;;;;;;;13.05;4.60;;;;;;;;;;4990797;28;20511;-69
2021/07/30 08:47:52;;;;;;;14.55;4.03;;;;;;;;;;4994431;28;20030;-68
2021/07/30 08:50:18;;;;;;;6.88;4.10;;;;;;;;;;4995086;28;20110;-68
2021/07/30 08:52:45;;;;;;;13.50;4.57;;;;;;;;;;4992606;28;20034;-66
2021/07/30 08:55:12;;;;;;;10.15;4.35;;;;;;;;;;4994663;28;20068;-70
2021/07/30 08:57:41;;;;;;;8.23;4.30;;;;;;;;;;4994470;28;20030;-68
2021/07/30 09:00:11;;;;;;;7.15;4.75;;;;;;;;;;4994828;28;20444;-69
2021/07/30 09:02:37;;;;;;;8.43;4.20;;;;;;;;;;4994241;28;20034;-70
2021/07/30 09:05:23;;;;;;;9.85;4.13;;;;;;;;;;4994150;28;20026;-68
2021/07/30 09:07:49;;;;;;;6.05;3.80;;;;;;;;;;4994479;28;20030;-68
2021/07/30 09:10:36;;;;;;;8.75;4.22;;;;;;;;;;4994309;28;20033;-69
2021/07/30 09:13:18;;;;;;;6.25;3.90;;;;;;;;;;4983845;28;20455;-69
2021/07/30 09:15:45;;;;;;;10.27;3.58;;;;;;;;;;4994418;28;20478;-69
2021/07/30 09:18:27;;;;;;;6.10;3.55;;;;;;;;;;4993627;28;20396;-69
2021/07/30 09:20:54;;;;;;;8.13;4.47;;;;;;;;;;4993943;28;20049;-67
2021/07/30 09:23:20;;;;;;;7.78;3.50;;;;;;;;;;4994274;28;20030;-69
2021/07/30 09:25:46;;;;;;;20.00;4.70;;;;;;;;;;4994068;28;20038;-69
2021/07/30 09:28:12;;;;;;;8.23;3.28;;;;;;;;;;4994260;28;20030;-69
2021/07/30 09:30:39;;;;;;;12.73;3.80;;;;;;;;;;4993336;28;20113;-69
2021/07/30 09:33:05;;;;;;;8.10;3.45;;;;;;;;;;4972769;28;20039;-69
2021/07/30 09:35:54;;;;;;;15.80;4.25;;;;;;;;;;4990413;28;20033;-66
2021/07/30 09:38:20;;;;;;;5.38;3.42;;;;;;;;;;4972803;28;20026;-68
2021/07/30 09:40:46;;;;;;;6.82;3.45;;;;;;;;;;4991258;28;20042;-68
2021/07/30 09:43:22;;;;;;;8.45;3.58;;;;;;;;;;4993291;28;20030;-67
2021/07/30 09:45:48;;;;;;;6.47;3.75;;;;;;;;;;4993532;28;20081;-65
2021/07/30 09:48:14;;;;;;;6.10;3.30;;;;;;;;;;4993757;28;20026;-68
2021/07/30 09:50:40;;;;;;;6.65;3.40;;;;;;;;;;4994593;28;20388;-69
2021/07/30 09:53:09;;;;;;;7.32;3.40;;;;;;;;;;4983268;28;20057;-67
2021/07/30 09:55:36;;;;;;;36.20;4.80;;;;;;;;;;4993387;28;20109;-66
2021/07/30 09:58:02;;;;;;;6.43;3.25;;;;;;;;;;4999934;28;20038;-69
2021/07/30 10:00:31;;;;;;;7.63;3.17;;;;;;;;;;4993415;28;20030;-69
2021/07/30 10:03:01;;;;;;;9.23;3.40;;;;;;;;;;4999469;28;20049;-67
2021/07/30 10:05:28;;;;;;;7.10;3.10;;;;;;;;;;4975664;28;20109;-69
2021/07/30 10:07:54;;;;;;;30.40;5.05;;;;;;;;;;4993064;28;20030;-68
2021/07/30 10:10:28;;;;;;;7.57;3.05;;;;;;;;;;4993155;28;20461;-65
2021/07/30 10:12:57;;;;;;;8.75;3.17;;;;;;;;;;4995483;28;20077;-65
2021/07/30 10:15:23;;;;;;;6.60;3.83;;;;;;;;;;4992520;28;20018;-65
2021/07/30 10:17:50;;;;;;;5.97;3.28;;;;;;;;;;4972074;28;20527;-66
2021/07/30 10:20:17;;;;;;;10.50;3.25;;;;;;;;;;4990339;28;20034;-69
2021/07/30 10:23:04;;;;;;;5.82;3.35;;;;;;;;;;4992901;28;20022;-68
2021/07/30 10:25:34;;;;;;;7.50;3.40;;;;;;;;;;4992970;28;20031;-69
2021/07/30 10:28:03;;;;;;;6.88;3.80;;;;;;;;;;4993001;28;20037;-69
2021/07/30 10:30:34;;;;;;;7.10;3.67;;;;;;;;;;4992686;28;20042;-66
2021/07/30 10:33:02;;;;;;;15.02;4.55;;;;;;;;;;4992984;28;20445;-69
2021/07/30 10:35:28;;;;;;;10.32;4.22;;;;;;;;;;4992654;28;20033;-68
2021/07/30 10:38:13;;;;;;;7.22;3.30;;;;;;;;;;4992615;28;20022;-68
2021/07/30 10:40:39;;;;;;;7.22;3.72;;;;;;;;;;4992446;28;20438;-69
2021/07/30 10:43:09;;;;;;;6.47;3.85;;;;;;;;;;4991587;28;20255;-69
2021/07/30 10:45:39;;;;;;;6.45;3.85;;;;;;;;;;4992240;28;20050;-69
2021/07/30 10:48:11;;;;;;;11.25;4.30;;;;;;;;;;4992463;28;20027;-69
2021/07/30 10:50:48;;;;;;;9.55;4.00;;;;;;;;;;4992262;28;20033;-66
2021/07/30 10:53:32;;;;;;;9.75;4.60;;;;;;;;;;4978683;28;20531;-68
2021/07/30 10:55:59;;;;;;;8.70;5.00;;;;;;;;;;4987036;28;20089;-69
2021/07/30 10:58:40;;;;;;;10.02;4.65;;;;;;;;;;4992502;28;20357;-70
2021/07/30 11:01:10;;;;;;;16.90;5.10;;;;;;;;;;4992075;28;20595;-69
2021/07/30 11:03:59;;;;;;;4.85;4.10;;;;;;;;;;4992328;28;20030;-69
2021/07/30 11:06:26;;;;;;;21.98;6.40;;;;;;;;;;4984346;28;20109;-67
2021/07/30 11:09:04;;;;;;;7.95;4.60;;;;;;;;;;4992650;28;20029;-69
2021/07/30 11:11:37;;;;;;;11.75;4.72;;;;;;;;;;4993611;28;20483;-66
2021/07/30 11:14:07;;;;;;;10.75;5.68;;;;;;;;;;4992573;28;20125;-70
2021/07/30 11:16:39;;;;;;;17.40;4.65;;;;;;;;;;4997290;28;20027;-69
2021/07/30 11:19:06;;;;;;;8.32;4.45;;;;;;;;;;4992556;28;20042;-70
2021/07/30 11:21:32;;;;;;;9.57;4.80;;;;;;;;;;4991565;28;20023;-65
2021/07/30 11:23:58;;;;;;;11.13;4.93;;;;;;;;;;4992006;28;20041;-68
2021/07/30 11:26:35;;;;;;;8.80;4.82;;;;;;;;;;4993960;28;20039;-70
2021/07/30 11:29:13;;;;;;;7.45;4.78;;;;;;;;;;4934862;29;20032;-66
2021/07/30 11:31:58;;;;;;;6.55;4.15;;;;;;;;;;4931614;29;20144;-69
2021/07/30 11:34:27;;;;;;;11.68;4.40;;;;;;;;;;4920287;29;20039;-68
2021/07/30 11:36:59;;;;;;;7.63;4.50;;;;;;;;;;4933582;29;20490;-69
2021/07/30 11:39:43;;;;;;;8.13;4.47;;;;;;;;;;4919109;29;20080;-65
2021/07/30 11:42:22;;;;;;;8.02;5.13;;;;;;;;;;4931989;29;20036;-69
2021/07/30 11:44:49;;;;;;;9.88;4.72;;;;;;;;;;4932059;29;20044;-66
2021/07/30 11:47:15;;;;;;;9.05;4.40;;;;;;;;;;4932271;29;20510;-69
2021/07/30 11:49:42;;;;;;;12.75;5.13;;;;;;;;;;4939214;29;20028;-69
2021/07/30 11:52:10;;;;;;;10.43;5.00;;;;;;;;;;4931769;29;20398;-67
2021/07/30 11:54:36;;;;;;;7.18;4.40;;;;;;;;;;4931459;29;20039;-68
2021/07/30 11:57:04;;;;;;;8.55;4.47;;;;;;;;;;4932079;29;20031;-67
2021/07/30 11:59:43;;;;;;;8.02;4.78;;;;;;;;;;4932696;29;20059;-68
2021/07/30 12:02:10;;;;;;;7.53;4.90;;;;;;;;;;4935234;29;20050;-69
2021/07/30 12:04:36;;;;;;;7.90;4.45;;;;;;;;;;4935313;29;20039;-69
2021/07/30 12:07:07;;;;;;;8.68;5.10;;;;;;;;;;4935369;29;20125;-69
2021/07/30 12:09:52;;;;;;;9.90;5.15;;;;;;;;;;4936867;29;20389;-70
2021/07/30 12:12:18;;;;;;;11.73;5.13;;;;;;;;;;4878422;29;20483;-69
2021/07/30 12:14:52;;;;;;;14.57;5.30;;;;;;;;;;4878248;29;20080;-69
2021/07/30 12:17:19;;;;;;;11.45;5.03;;;;;;;;;;4865891;29;20525;-66
2021/07/30 12:19:56;;;;;;;9.10;4.70;;;;;;;;;;4879498;29;20041;-68
2021/07/30 12:22:33;;;;;;;8.85;5.15;;;;;;;;;;4878301;29;20483;-66
2021/07/30 12:24:59;;;;;;;12.23;5.22;;;;;;;;;;4878231;29;20037;-68
2021/07/30 12:27:25;;;;;;;18.45;5.30;;;;;;;;;;4878502;29;20047;-69
2021/07/30 12:29:51;;;;;;;15.00;5.78;;;;;;;;;;4869635;29;20128;-67
2021/07/30 12:32:18;;;;;;;13.85;4.95;;;;;;;;;;4878542;29;20048;-69
2021/07/30 12:34:53;;;;;;;8.48;5.05;;;;;;;;;;4880764;29;20039;-69
2021/07/30 12:37:20;;;;;;;8.48;5.20;;;;;;;;;;4878379;29;20032;-70
2021/07/30 12:39:47;;;;;;;12.77;5.40;;;;;;;;;;4911920;29;20439;-67
2021/07/30 12:42:20;;;;;;;11.63;5.20;;;;;;;;;;4916055;29;20028;-69
2021/07/30 12:45:05;;;;;;;11.55;6.00;;;;;;;;;;4917633;29;20096;-70
2021/07/30 12:47:32;;;;;;;8.85;5.38;;;;;;;;;;4914267;29;20131;-66
2021/07/30 12:49:59;;;;;;;12.93;5.82;;;;;;;;;;4913913;29;20055;-67
2021/07/30 12:52:25;;;;;;;16.98;5.93;;;;;;;;;;4914621;29;20028;-70
2021/07/30 12:55:02;;;;;;;10.57;5.28;;;;;;;;;;4895310;29;20483;-70
2021/07/30 12:57:28;;;;;;;12.27;6.03;;;;;;;;;;4907112;29;20080;-69
2021/07/30 12:59:55;;;;;;;9.68;5.50;;;;;;;;;;4919752;29;20044;-69
2021/07/30 13:02:26;;;;;;;9.10;5.72;;;;;;;;;;4914957;29;20091;-66
2021/07/30 13:04:52;;;;;;;9.07;5.82;;;;;;;;;;4915306;29;20122;-70
2021/07/30 13:07:19;;;;;;;11.48;5.70;;;;;;;;;;4917459;29;20032;-72
2021/07/30 13:09:50;;;;;;;14.18;6.60;;;;;;;;;;4983631;28;20650;-68
2021/07/30 13:12:17;;;;;;;13.05;6.15;;;;;;;;;;4993619;28;20114;-69
2021/07/30 13:14:45;;;;;;;10.82;6.05;;;;;;;;;;4994002;28;20502;-68
2021/07/30 13:17:11;;;;;;;11.75;6.90;;;;;;;;;;4994144;28;20065;-69
2021/07/30 13:19:38;;;;;;;10.70;6.72;;;;;;;;;;4983100;28;20429;-71
2021/07/30 13:22:05;;;;;;;13.07;6.70;;;;;;;;;;4993898;28;20030;-66
2021/07/30 13:24:31;;;;;;;14.10;6.90;;;;;;;;;;4993228;28;20026;-70
2021/07/30 13:26:57;;;;;;;15.40;6.68;;;;;;;;;;4993943;28;20110;-70
2021/07/30 13:29:23;;;;;;;17.40;7.15;;;;;;;;;;4993900;28;20027;-70
2021/07/30 13:31:49;;;;;;;43.85;9.10;;;;;;;;;;4993634;28;20245;-70
2021/07/30 13:34:16;;;;;;;13.10;7.30;;;;;;;;;;4985596;28;20022;-67
2021/07/30 13:36:42;;;;;;;14.27;8.10;;;;;;;;;;4996093;28;20073;-70
2021/07/30 13:39:08;;;;;;;14.43;7.20;;;;;;;;;;4973016;28;20018;-67
2021/07/30 13:41:34;;;;;;;11.73;7.60;;;;;;;;;;4992931;28;20113;-66
2021/07/30 13:44:00;;;;;;;11.80;7.95;;;;;;;;;;4993614;28;20053;-66
2021/07/30 13:46:26;;;;;;;17.08;7.88;;;;;;;;;;4993439;28;20096;-68
2021/07/30 13:48:52;;;;;;;11.65;8.25;;;;;;;;;;4994553;28;20093;-70
2021/07/30 13:51:18;;;;;;;13.07;8.40;;;;;;;;;;4991279;28;20357;-69
2021/07/30 13:53:44;;;;;;;10.55;8.15;;;;;;;;;;4982379;28;20439;-67
2021/07/30 13:56:10;;;;;;;13.90;8.32;;;;;;;;;;4993534;28;20038;-69
2021/07/30 13:58:37;;;;;;;16.45;8.55;;;;;;;;;;4986997;28;20033;-70
2021/07/30 14:01:03;;;;;;;10.35;7.40;;;;;;;;;;4991776;28;20029;-70
2021/07/30 14:03:29;;;;;;;17.55;7.40;;;;;;;;;;4993214;28;20042;-70
2021/07/30 14:05:55;;;;;;;15.93;7.43;;;;;;;;;;4992901;28;20034;-69
2021/07/30 14:08:22;;;;;;;11.85;7.30;;;;;;;;;;4994924;28;20081;-70
2021/07/30 14:10:48;;;;;;;15.90;7.95;;;;;;;;;;4993110;28;20057;-67
2021/07/30 14:13:15;;;;;;;14.77;8.20;;;;;;;;;;4993434;28;20033;-68
2021/07/30 14:15:41;;;;;;;12.40;8.13;;;;;;;;;;4993496;28;20026;-70
2021/07/30 14:18:08;;;;;;;10.98;7.68;;;;;;;;;;4993520;28;20121;-70
2021/07/30 14:20:44;;;;;;;12.70;7.57;;;;;;;;;;4999662;28;20130;-69
2021/07/30 14:23:11;;;;;;;11.00;7.10;;;;;;;;;;4992686;28;20027;-70
2021/07/30 14:25:37;;;;;;;14.55;7.60;;;;;;;;;;4992556;28;20034;-70
2021/07/30 14:28:03;;;;;;;10.38;6.97;;;;;;;;;;4993039;28;20105;-70
2021/07/30 14:30:39;;;;;;;32.67;7.18;;;;;;;;;;4999016;28;20030;-72
2021/07/30 14:33:05;;;;;;;9.45;6.97;;;;;;;;;;4988673;28;20507;-69
2021/07/30 14:35:31;;;;;;;12.35;6.78;;;;;;;;;;4993142;28;20018;-70
2021/07/30 14:38:00;;;;;;;16.35;6.68;;;;;;;;;;4994765;28;20026;-71
2021/07/30 14:40:26;;;;;;;11.48;7.25;;;;;;;;;;4988693;28;20431;-70
2021/07/30 14:42:54;;;;;;;11.30;6.85;;;;;;;;;;4992411;28;20034;-70
2021/07/30 14:45:21;;;;;;;16.80;7.25;;;;;;;;;;4992443;28;20042;-66